Time;durP1;ratioP1;P1;durP2;ratioP2;P2;SDS_P1;SDS_P2;PMS_P1;PMS_P2;Temp;Humidity;BMP_temperature;BMP_pressure;BME280_temperature;BME280_humidity;BME280_pressure;Samples;Min_cycle;Max_cycle;Signal;HPM_P1;HPM_P2
2022/03/27 00:02:20;;;;;;;12.77;5.85;;;;;;;1.54;59.09;97262.84;5116750;28;20027;-63
2022/03/27 00:04:47;;;;;;;19.77;6.05;;;;;;;1.48;59.20;97262.78;5116431;28;20055;-63
2022/03/27 00:07:12;;;;;;;9.05;5.63;;;;;;;1.40;59.08;97254.97;5116554;27;20496;-63
2022/03/27 00:09:38;;;;;;;11.63;5.78;;;;;;;1.41;59.08;97248.94;5116594;27;20043;-63
2022/03/27 00:12:04;;;;;;;9.50;5.75;;;;;;;1.41;57.65;97248.94;5116400;28;20016;-63
2022/03/27 00:14:30;;;;;;;7.80;5.63;;;;;;;1.44;58.60;97246.41;5116263;28;20020;-63
2022/03/27 00:16:57;;;;;;;13.43;5.75;;;;;;;1.48;58.50;97250.72;5116287;28;20030;-63
2022/03/27 00:19:22;;;;;;;8.40;5.78;;;;;;;1.57;58.79;97252.56;5116128;28;20016;-63
2022/03/27 00:21:49;;;;;;;8.93;5.20;;;;;;;1.53;58.23;97242.19;5116204;28;20095;-63
2022/03/27 00:24:15;;;;;;;8.32;5.20;;;;;;;1.51;57.92;97237.03;5116073;28;20020;-62
2022/03/27 00:26:41;;;;;;;7.78;5.40;;;;;;;1.50;58.01;97236.16;5116119;27;20024;-62
2022/03/27 00:29:07;;;;;;;10.07;5.18;;;;;;;1.45;57.86;97235.25;5115928;28;20023;-62
2022/03/27 00:31:35;;;;;;;11.13;4.45;;;;;;;1.50;57.77;97235.28;5116022;28;20015;-64
2022/03/27 00:34:05;;;;;;;10.88;5.03;;;;;;;1.43;57.68;97223.19;5115958;28;20403;-63
2022/03/27 00:36:31;;;;;;;12.00;5.35;;;;;;;1.45;57.94;97224.94;5115876;28;20084;-64
2022/03/27 00:38:57;;;;;;;8.27;5.30;;;;;;;1.49;58.32;97218.09;5115768;28;20366;-63
2022/03/27 00:41:24;;;;;;;9.35;5.25;;;;;;;1.62;58.17;97221.63;5115659;28;20040;-64
2022/03/27 00:43:50;;;;;;;9.77;5.55;;;;;;;1.46;58.53;97215.47;5115905;28;20027;-64
2022/03/27 00:46:16;;;;;;;8.63;5.25;;;;;;;1.35;58.28;97221.41;5115698;28;20358;-62
2022/03/27 00:48:42;;;;;;;11.35;5.22;;;;;;;1.33;58.54;97217.97;5115754;28;20011;-62
2022/03/27 00:51:08;;;;;;;12.43;5.60;;;;;;;1.36;58.26;97214.53;5115531;28;20018;-63
2022/03/27 00:53:34;;;;;;;16.33;5.13;;;;;;;1.33;58.54;97205.06;5115548;28;20024;-63
2022/03/27 00:55:59;;;;;;;11.38;5.00;;;;;;;1.23;58.41;97203.22;5115560;28;20358;-63
2022/03/27 00:58:25;;;;;;;12.65;5.32;;;;;;;1.21;58.68;97204.94;5114945;28;20032;-64
2022/03/27 01:00:56;;;;;;;10.05;5.00;;;;;;;1.32;58.79;97205.91;5115446;28;20019;-62
2022/03/27 01:03:25;;;;;;;12.93;5.60;;;;;;;1.38;58.86;97202.50;5115390;28;20409;-64
2022/03/27 01:05:52;;;;;;;11.10;5.30;;;;;;;1.41;58.92;97209.44;5115318;28;20059;-63
2022/03/27 01:09:35;;;;;;;10.13;5.38;;;;;;;1.43;58.74;97207.72;5115209;28;20028;-64
2022/03/27 01:11:21;;;;;;;9.50;5.38;;;;;;;1.46;58.75;97211.19;5115294;28;20059;-63
2022/03/27 01:13:58;;;;;;;9.00;5.18;;;;;;;1.43;58.29;97208.59;5115358;28;20028;-63
2022/03/27 01:16:37;;;;;;;8.75;4.55;;;;;;;1.45;58.94;97208.59;5115150;28;20505;-63
2022/03/27 01:19:04;;;;;;;14.98;4.93;;;;;;;1.43;58.57;97205.13;5115107;28;20085;-63
2022/03/27 01:21:30;;;;;;;10.13;5.35;;;;;;;1.26;58.46;97203.25;5115111;28;20023;-64
2022/03/27 01:23:55;;;;;;;11.45;4.82;;;;;;;1.08;58.88;97209.97;5115041;27;20027;-64
2022/03/27 01:26:23;;;;;;;10.75;4.85;;;;;;;1.08;59.16;97201.38;5114876;28;20019;-64
2022/03/27 01:28:48;;;;;;;10.23;4.82;;;;;;;1.04;59.40;97205.63;5114949;28;20030;-63
2022/03/27 01:31:14;;;;;;;8.82;5.53;;;;;;;0.98;60.12;97198.69;5114863;28;20106;-63
2022/03/27 01:33:39;;;;;;;9.90;5.20;;;;;;;0.95;59.79;97202.94;5114841;28;20035;-64
2022/03/27 01:36:05;;;;;;;7.60;4.88;;;;;;;1.01;59.95;97200.44;5114771;28;20550;-64
2022/03/27 01:38:31;;;;;;;13.05;4.85;;;;;;;0.93;60.04;97197.78;5114541;28;20102;-64
2022/03/27 01:40:56;;;;;;;8.98;4.88;;;;;;;0.84;59.75;97195.13;5114386;28;20039;-63
2022/03/27 01:43:22;;;;;;;10.77;5.07;;;;;;;0.91;59.79;97201.19;5114521;28;20020;-63
2022/03/27 01:45:48;;;;;;;10.13;5.90;;;;;;;1.07;59.93;97189.31;5114714;28;20157;-64
2022/03/27 01:48:13;;;;;;;14.02;5.55;;;;;;;1.03;59.88;97190.16;5114464;28;20023;-63
2022/03/27 01:50:39;;;;;;;8.93;5.20;;;;;;;1.02;59.76;97191.00;5114375;28;20031;-63
2022/03/27 01:53:05;;;;;;;8.43;5.03;;;;;;;1.03;59.23;97185.00;5114446;28;20161;-63
2022/03/27 01:55:30;;;;;;;12.70;5.38;;;;;;;1.09;59.85;97195.38;5114352;28;20485;-64
2022/03/27 01:57:56;;;;;;;9.68;4.97;;;;;;;1.11;59.89;97185.91;5114313;28;20034;-62
2022/03/27 02:00:21;;;;;;;9.07;5.07;;;;;;;1.06;59.38;97183.31;5114346;28;20059;-63
2022/03/27 02:02:47;;;;;;;8.68;4.85;;;;;;;1.15;59.54;97184.25;5114218;28;20024;-63
2022/03/27 02:05:13;;;;;;;8.65;4.50;;;;;;;1.16;59.56;97185.97;5114119;28;20027;-64
2022/03/27 02:07:42;;;;;;;9.80;5.65;;;;;;;1.26;59.42;97185.22;5114145;28;20464;-63
2022/03/27 02:10:08;;;;;;;9.82;5.20;;;;;;;1.30;59.80;97175.81;5114129;28;20106;-64
2022/03/27 02:12:35;;;;;;;9.40;4.68;;;;;;;1.26;59.69;97175.78;5114118;28;20019;-63
2022/03/27 02:15:08;;;;;;;8.60;4.38;;;;;;;1.24;59.71;97181.78;5114001;28;20038;-64
2022/03/27 02:17:38;;;;;;;8.20;4.38;;;;;;;1.25;59.84;97184.38;5113881;28;20051;-64
2022/03/27 02:20:05;;;;;;;11.85;4.57;;;;;;;1.31;59.50;97191.28;5113935;28;20351;-63
2022/03/27 02:22:31;;;;;;;9.23;4.93;;;;;;;1.34;59.46;97181.00;5113946;28;20020;-63
2022/03/27 02:24:56;;;;;;;10.02;4.35;;;;;;;1.22;59.94;97191.19;5113910;28;20527;-63
2022/03/27 02:27:22;;;;;;;12.88;4.57;;;;;;;1.16;60.13;97189.41;5113848;28;20031;-63
2022/03/27 02:29:47;;;;;;;7.35;4.30;;;;;;;1.09;60.22;97190.22;5113752;28;20023;-63
2022/03/27 02:32:14;;;;;;;9.70;5.30;;;;;;;1.16;60.60;97192.00;5113756;28;20028;-63
2022/03/27 02:34:41;;;;;;;11.65;4.20;;;;;;;1.17;60.25;97192.88;5113816;28;20023;-64
2022/03/27 02:37:07;;;;;;;6.65;4.65;;;;;;;1.09;60.58;97195.38;5113823;28;20050;-64
2022/03/27 02:39:32;;;;;;;8.88;4.97;;;;;;;1.14;60.35;97198.84;5113402;28;20491;-64
2022/03/27 02:41:58;;;;;;;8.90;4.15;;;;;;;1.09;60.96;97192.78;5113594;28;20062;-62
2022/03/27 02:44:24;;;;;;;10.23;4.50;;;;;;;1.04;60.79;97190.16;5113659;28;20153;-62
2022/03/27 02:46:50;;;;;;;10.45;4.85;;;;;;;1.01;60.79;97192.69;5113663;28;20354;-64
2022/03/27 02:49:20;;;;;;;7.13;4.38;;;;;;;0.94;61.05;97199.53;5113528;28;20015;-63
2022/03/27 02:51:46;;;;;;;10.85;4.85;;;;;;;1.07;61.59;97199.63;5113582;28;20035;-62
2022/03/27 02:54:12;;;;;;;8.35;4.72;;;;;;;1.10;60.33;97194.50;5113430;28;20020;-63
2022/03/27 02:56:38;;;;;;;8.10;4.40;;;;;;;1.01;61.36;97197.84;5113510;28;20023;-64
2022/03/27 02:59:04;;;;;;;14.88;4.47;;;;;;;0.94;60.50;97191.78;5113492;28;20031;-62
2022/03/27 03:01:31;;;;;;;12.30;4.78;;;;;;;0.94;61.23;97204.66;5113496;28;20032;-64
2022/03/27 03:03:57;;;;;;;8.57;4.47;;;;;;;0.90;61.79;97207.19;5113545;28;20023;-63
2022/03/27 03:06:24;;;;;;;7.53;4.15;;;;;;;0.82;61.63;97201.94;5113390;28;20094;-63
2022/03/27 03:08:50;;;;;;;7.05;3.90;;;;;;;0.88;62.00;97202.03;5113431;28;20423;-63
2022/03/27 03:11:16;;;;;;;14.02;3.97;;;;;;;0.86;61.51;97206.28;5113443;28;20080;-63
2022/03/27 03:13:43;;;;;;;14.55;4.22;;;;;;;0.91;62.00;97203.75;5113387;28;20023;-63
2022/03/27 03:16:09;;;;;;;9.90;3.78;;;;;;;0.87;62.62;97201.16;5113298;28;20024;-63
2022/03/27 03:18:35;;;;;;;8.75;4.45;;;;;;;0.82;62.50;97204.53;5113181;28;20024;-63
2022/03/27 03:21:01;;;;;;;8.07;3.88;;;;;;;0.93;62.46;97204.66;5113177;28;20039;-64
2022/03/27 03:23:27;;;;;;;9.00;4.30;;;;;;;0.88;61.94;97210.59;5117476;28;20028;-63
2022/03/27 03:25:54;;;;;;;10.00;3.53;;;;;;;0.93;62.52;97212.38;5117338;28;20384;-63
2022/03/27 03:28:20;;;;;;;7.85;4.47;;;;;;;0.83;62.61;97212.28;5117152;28;20027;-63
2022/03/27 03:30:46;;;;;;;8.38;4.32;;;;;;;0.93;62.38;97214.97;5117206;28;20047;-63
2022/03/27 03:33:12;;;;;;;7.25;4.28;;;;;;;0.91;61.85;97211.50;5117115;28;20508;-63
2022/03/27 03:35:39;;;;;;;7.20;3.38;;;;;;;0.87;62.51;97218.31;5117054;28;20378;-64
2022/03/27 03:38:05;;;;;;;6.80;3.92;;;;;;;0.89;62.91;97219.19;5116976;28;20068;-63
2022/03/27 03:40:31;;;;;;;8.52;4.45;;;;;;;0.80;62.71;97219.09;5116840;28;20051;-63
2022/03/27 03:42:57;;;;;;;7.38;3.92;;;;;;;0.88;62.80;97218.31;5116874;28;20020;-64
2022/03/27 03:45:23;;;;;;;10.77;4.53;;;;;;;0.84;63.20;97210.56;5116962;28;20058;-63
2022/03/27 03:47:48;;;;;;;9.13;3.90;;;;;;;0.88;62.95;97218.31;5116825;28;20482;-63
2022/03/27 03:50:14;;;;;;;13.02;5.00;;;;;;;0.88;63.55;97210.59;5116881;28;20016;-63
2022/03/27 03:52:40;;;;;;;8.57;4.35;;;;;;;0.91;63.42;97212.38;5116777;28;20488;-64
2022/03/27 03:55:05;;;;;;;9.32;3.92;;;;;;;0.85;63.17;97217.44;5116628;28;20066;-63
2022/03/27 03:57:31;;;;;;;11.65;4.35;;;;;;;0.96;63.37;97217.56;5116795;28;20027;-63
2022/03/27 03:59:58;;;;;;;6.13;3.75;;;;;;;0.97;63.61;97224.44;5116573;28;20485;-63
2022/03/27 04:02:23;;;;;;;10.35;4.57;;;;;;;0.96;63.13;97226.16;5116587;28;20062;-63
2022/03/27 04:04:49;;;;;;;8.77;3.90;;;;;;;1.00;63.29;97227.06;5116542;28;20055;-63
2022/03/27 04:07:15;;;;;;;9.65;4.20;;;;;;;1.03;63.75;97223.66;5116451;28;20103;-63
2022/03/27 04:09:40;;;;;;;7.50;4.00;;;;;;;1.04;62.91;97230.53;5116500;28;20031;-63
2022/03/27 04:12:06;;;;;;;12.85;4.30;;;;;;;1.06;63.04;97224.56;5116362;28;20403;-63
2022/03/27 04:14:36;;;;;;;11.13;4.32;;;;;;;1.04;63.25;97230.53;5116471;28;20027;-64
2022/03/27 04:17:02;;;;;;;8.60;4.55;;;;;;;1.15;62.96;97223.78;5116315;28;20077;-64
2022/03/27 04:19:29;;;;;;;8.45;4.55;;;;;;;1.22;63.23;97228.16;5116086;28;20055;-63
2022/03/27 04:21:55;;;;;;;11.00;4.72;;;;;;;1.21;63.34;97233.28;5116140;28;20525;-63
2022/03/27 04:24:21;;;;;;;8.70;4.55;;;;;;;1.22;63.33;97233.31;5116194;28;20104;-63
2022/03/27 04:26:46;;;;;;;8.75;4.13;;;;;;;1.30;62.69;97235.09;5116147;28;20541;-64
2022/03/27 04:29:12;;;;;;;8.43;4.50;;;;;;;1.38;63.09;97234.31;5116066;27;20032;-64
2022/03/27 04:31:40;;;;;;;7.32;4.45;;;;;;;1.47;62.43;97236.13;5116070;28;20028;-63
2022/03/27 04:34:06;;;;;;;10.45;4.63;;;;;;;1.59;62.28;97237.06;5114805;28;20028;-63
2022/03/27 04:36:32;;;;;;;10.68;6.55;;;;;;;1.62;62.56;97243.13;5115915;28;20427;-63
2022/03/27 04:38:58;;;;;;;7.90;3.97;;;;;;;1.67;62.14;97244.88;5115853;28;20388;-63
2022/03/27 04:41:23;;;;;;;14.18;4.43;;;;;;;1.66;61.55;97244.03;5115558;28;20393;-63
2022/03/27 04:43:49;;;;;;;8.90;4.70;;;;;;;1.68;61.62;97250.06;5115838;28;20031;-63
2022/03/27 04:46:15;;;;;;;9.95;4.80;;;;;;;1.78;61.15;97253.59;5115799;28;20027;-63
2022/03/27 04:48:42;;;;;;;9.73;4.38;;;;;;;1.91;61.41;97248.53;5115674;28;20023;-63
2022/03/27 04:51:08;;;;;;;6.28;4.22;;;;;;;2.36;61.10;97261.75;5115716;28;20057;-63
2022/03/27 04:53:34;;;;;;;10.75;4.40;;;;;;;3.01;59.23;97258.63;5115563;28;20104;-64
2022/03/27 04:55:59;;;;;;;9.68;4.72;;;;;;;3.69;57.71;97257.91;5115557;28;20057;-64
2022/03/27 04:58:25;;;;;;;8.25;4.88;;;;;;;4.51;55.57;97257.00;5115444;28;20098;-64
2022/03/27 05:00:50;;;;;;;9.35;3.95;;;;;;;5.30;53.28;97252.41;5115545;28;20366;-63
2022/03/27 05:03:16;;;;;;;5.40;3.42;;;;;;;6.09;51.00;97255.34;5115430;28;20541;-64
2022/03/27 05:05:43;;;;;;;6.68;3.78;;;;;;;6.87;48.94;97255.44;5115348;28;20475;-64
2022/03/27 05:08:09;;;;;;;7.20;3.28;;;;;;;7.62;46.96;97256.19;5115335;28;20072;-64
2022/03/27 05:10:35;;;;;;;7.55;3.83;;;;;;;8.38;46.08;97257.59;5115315;28;20020;-64
2022/03/27 05:13:02;;;;;;;11.35;3.75;;;;;;;9.27;43.98;97263.72;5115351;28;20022;-63
2022/03/27 05:15:27;;;;;;;6.55;3.72;;;;;;;10.18;42.09;97267.75;5115246;28;20508;-63
2022/03/27 05:17:57;;;;;;;7.60;3.50;;;;;;;10.89;41.12;97263.38;5115129;28;20032;-64
2022/03/27 05:20:23;;;;;;;10.02;3.92;;;;;;;11.45;39.63;97259.16;5114985;28;20114;-63
2022/03/27 05:22:49;;;;;;;5.75;3.33;;;;;;;12.21;38.01;97264.69;5115064;28;20024;-64
2022/03/27 05:25:16;;;;;;;6.70;3.80;;;;;;;12.97;38.01;97274.34;5115016;28;20024;-64
2022/03/27 05:27:56;;;;;;;7.80;3.80;;;;;;;13.77;35.19;97274.06;5114921;28;20023;-64
2022/03/27 05:30:25;;;;;;;6.40;3.92;;;;;;;14.47;34.04;97275.63;5114914;28;20027;-64
2022/03/27 05:32:53;;;;;;;7.75;3.85;;;;;;;15.19;31.50;97276.09;5114833;28;20601;-64
2022/03/27 05:35:20;;;;;;;6.30;3.70;;;;;;;15.98;31.72;97279.53;5114877;28;20054;-64
2022/03/27 05:37:48;;;;;;;6.68;3.95;;;;;;;16.68;30.45;97284.00;5114755;28;20035;-64
2022/03/27 05:40:20;;;;;;;4.32;3.38;;;;;;;17.18;31.05;97286.78;5114419;28;20428;-64
2022/03/27 05:42:47;;;;;;;7.63;4.03;;;;;;;17.70;29.92;97284.03;5114642;28;20024;-64
2022/03/27 05:45:13;;;;;;;10.18;4.63;;;;;;;18.13;28.43;97294.06;5114379;28;20120;-64
2022/03/27 05:47:41;;;;;;;8.90;3.53;;;;;;;18.47;29.10;97299.19;5114539;28;20024;-64
2022/03/27 05:50:08;;;;;;;5.35;3.50;;;;;;;18.81;27.15;97298.97;5114610;27;20088;-64
2022/03/27 05:52:34;;;;;;;8.02;4.18;;;;;;;19.13;27.67;97287.41;5114414;28;20026;-63
2022/03/27 05:55:00;;;;;;;8.18;3.70;;;;;;;19.66;26.97;97292.97;5114396;28;20504;-63
2022/03/27 05:57:26;;;;;;;8.00;3.75;;;;;;;20.13;24.76;97295.38;5114507;28;20024;-64
2022/03/27 05:59:51;;;;;;;7.13;3.80;;;;;;;20.60;22.70;97291.47;5114415;28;20028;-64
2022/03/27 06:02:17;;;;;;;7.07;3.45;;;;;;;21.05;25.96;97294.66;5114287;28;20016;-64
2022/03/27 06:04:43;;;;;;;11.45;4.15;;;;;;;21.64;26.02;97304.81;5114291;28;20028;-64
2022/03/27 06:07:10;;;;;;;8.05;4.20;;;;;;;22.11;26.06;97302.38;5114232;28;20019;-64
2022/03/27 06:09:36;;;;;;;9.70;4.43;;;;;;;22.48;23.59;97304.09;5112926;28;20072;-64
2022/03/27 06:12:03;;;;;;;6.38;4.25;;;;;;;22.76;23.90;97307.41;5114181;28;20036;-64
2022/03/27 06:14:30;;;;;;;5.55;3.72;;;;;;;22.81;23.29;97291.03;5114100;28;20015;-64
2022/03/27 06:16:56;;;;;;;18.20;4.43;;;;;;;22.49;24.47;97299.63;5113964;27;20475;-64
2022/03/27 06:19:22;;;;;;;9.30;4.28;;;;;;;22.91;21.59;97299.19;5113813;28;20028;-64
2022/03/27 06:21:48;;;;;;;6.68;4.40;;;;;;;23.22;21.45;97310.16;5114111;28;20030;-65
2022/03/27 06:24:14;;;;;;;9.38;4.28;;;;;;;23.54;20.44;97311.31;5114149;28;20102;-65
2022/03/27 06:26:40;;;;;;;8.20;4.07;;;;;;;23.54;18.77;97303.28;5113822;28;20543;-65
2022/03/27 06:29:08;;;;;;;8.65;4.28;;;;;;;23.63;19.07;97305.22;5113780;28;20024;-65
2022/03/27 06:31:36;;;;;;;12.27;4.65;;;;;;;23.48;18.79;97300.13;5113685;28;20019;-65
2022/03/27 06:34:03;;;;;;;9.13;4.47;;;;;;;23.40;18.23;97305.25;5113781;28;20015;-65
2022/03/27 06:36:28;;;;;;;7.75;3.58;;;;;;;23.50;18.83;97308.03;5113784;28;20028;-65
2022/03/27 06:38:54;;;;;;;8.75;3.88;;;;;;;23.41;18.84;97303.41;5113594;28;20047;-64
2022/03/27 06:41:19;;;;;;;8.95;3.60;;;;;;;22.98;19.82;97297.75;5113608;28;20051;-64
2022/03/27 06:43:45;;;;;;;8.15;3.65;;;;;;;22.33;20.14;97300.78;5113615;28;20069;-64
2022/03/27 06:46:16;;;;;;;10.30;4.20;;;;;;;21.83;21.22;97304.38;5113612;28;20050;-64
2022/03/27 06:48:41;;;;;;;13.55;4.57;;;;;;;21.66;21.50;97302.88;5113570;28;20553;-64
2022/03/27 06:51:07;;;;;;;10.55;3.88;;;;;;;21.19;21.60;97308.81;5113584;28;20102;-64
2022/03/27 06:53:33;;;;;;;10.00;3.83;;;;;;;21.13;21.57;97307.41;5113516;28;20016;-64
2022/03/27 06:55:59;;;;;;;6.93;4.32;;;;;;;21.06;22.22;97304.31;5112793;28;20024;-64
2022/03/27 06:58:25;;;;;;;11.27;4.35;;;;;;;20.64;21.94;97298.28;5113349;28;20030;-63
2022/03/27 07:03:35;;;;;;;8.75;4.05;;;;;;;20.73;22.46;97304.78;5113490;28;20068;-63
2022/03/27 07:06:00;;;;;;;6.45;4.18;;;;;;;20.85;22.22;97295.97;5113511;28;20039;-64
2022/03/27 07:08:26;;;;;;;8.02;4.35;;;;;;;21.10;21.42;97304.94;5113303;28;20106;-64
2022/03/27 07:10:52;;;;;;;9.43;3.97;;;;;;;20.93;23.13;97304.31;5113416;28;20035;-64
2022/03/27 07:13:19;;;;;;;13.95;4.63;;;;;;;21.21;22.43;97302.41;5113427;28;20027;-64
2022/03/27 07:15:47;;;;;;;9.32;4.05;;;;;;;21.31;22.79;97293.81;5113412;28;20028;-64
2022/03/27 07:18:14;;;;;;;7.00;4.03;;;;;;;21.68;21.13;97303.63;5113220;28;20028;-64
2022/03/27 07:20:41;;;;;;;8.32;5.82;;;;;;;21.65;20.08;97286.09;5113427;28;20027;-64
2022/03/27 07:23:09;;;;;;;8.25;5.32;;;;;;;21.56;20.11;97298.25;5113198;28;20034;-64
2022/03/27 07:25:38;;;;;;;9.52;5.35;;;;;;;22.00;19.38;97302.31;5113276;28;20024;-64
2022/03/27 07:28:05;;;;;;;11.60;5.53;;;;;;;22.14;19.36;97301.28;5113208;28;20034;-64
2022/03/27 07:30:32;;;;;;;14.05;6.45;;;;;;;22.01;18.06;97293.34;5113262;28;20085;-64
2022/03/27 07:32:58;;;;;;;9.48;5.05;;;;;;;22.17;18.63;97288.59;5113097;28;20020;-64
2022/03/27 07:35:26;;;;;;;13.40;5.82;;;;;;;22.29;17.90;97294.84;5113151;28;20020;-64
2022/03/27 07:37:52;;;;;;;10.60;5.93;;;;;;;22.25;19.28;97297.84;5113027;28;20481;-64
2022/03/27 07:40:20;;;;;;;10.43;5.85;;;;;;;22.32;18.81;97289.28;5112735;28;20126;-65
2022/03/27 07:42:49;;;;;;;13.23;5.70;;;;;;;22.22;19.29;97281.09;5113116;28;20047;-65
2022/03/27 07:45:17;;;;;;;9.40;5.90;;;;;;;22.53;18.75;97279.78;5113019;28;20031;-65
2022/03/27 07:47:42;;;;;;;9.10;5.57;;;;;;;22.75;19.02;97289.69;5112896;28;20051;-65
2022/03/27 07:50:08;;;;;;;12.35;5.32;;;;;;;22.78;18.82;97293.97;5112904;28;20058;-65
2022/03/27 07:52:35;;;;;;;16.52;6.60;;;;;;;22.53;17.79;97291.31;5113062;28;20034;-65
2022/03/27 07:55:01;;;;;;;11.25;6.35;;;;;;;22.74;17.48;97284.47;5112939;28;20080;-65
2022/03/27 07:57:27;;;;;;;9.77;5.32;;;;;;;22.44;17.57;97292.84;5112980;28;20381;-65
2022/03/27 07:59:53;;;;;;;8.73;6.00;;;;;;;22.58;18.39;97291.00;5112843;28;20053;-65
2022/03/27 08:02:21;;;;;;;9.68;6.38;;;;;;;22.54;17.11;97281.47;5112815;28;20027;-65
2022/03/27 08:04:47;;;;;;;11.23;6.05;;;;;;;22.45;16.83;97289.19;5112880;28;20024;-65
2022/03/27 08:07:13;;;;;;;8.80;5.63;;;;;;;22.38;19.04;97287.97;5113348;28;20030;-64
2022/03/27 08:09:39;;;;;;;9.13;6.50;;;;;;;22.59;18.36;97280.22;5116583;28;20477;-65
2022/03/27 08:12:09;;;;;;;10.07;6.15;;;;;;;22.84;17.19;97291.66;5116431;28;20051;-65
2022/03/27 08:14:39;;;;;;;12.05;5.88;;;;;;;23.01;18.40;97294.84;5116522;28;20043;-65
2022/03/27 08:17:07;;;;;;;8.73;5.63;;;;;;;22.75;17.50;97291.53;5116329;28;20024;-65
2022/03/27 08:19:33;;;;;;;12.18;6.57;;;;;;;22.39;17.40;97289.66;5116307;28;20028;-64
2022/03/27 08:22:01;;;;;;;8.95;5.85;;;;;;;22.48;16.74;97298.78;5116215;28;20047;-64
2022/03/27 08:24:27;;;;;;;7.15;5.70;;;;;;;22.36;18.11;97291.72;5116214;28;20089;-64
2022/03/27 08:26:57;;;;;;;9.07;6.38;;;;;;;22.33;16.76;97293.63;5116255;28;20019;-64
2022/03/27 08:29:27;;;;;;;9.25;5.60;;;;;;;22.15;16.41;97290.50;5116244;28;20016;-64
2022/03/27 08:31:53;;;;;;;8.27;6.57;;;;;;;22.14;17.44;97285.31;5116135;28;20118;-64
2022/03/27 08:34:20;;;;;;;12.05;6.38;;;;;;;21.99;18.11;97273.97;5115939;28;20489;-64
2022/03/27 08:36:47;;;;;;;11.32;6.78;;;;;;;22.19;16.34;97294.66;5116018;28;20047;-64
2022/03/27 08:39:13;;;;;;;11.35;7.18;;;;;;;;;;5115849;28;20022;-64
2022/03/27 08:41:44;;;;;;;10.60;6.70;;;;;;;22.09;18.37;97280.31;5115771;28;20044;-64
2022/03/27 08:44:11;;;;;;;9.27;5.85;;;;;;;21.75;17.41;97277.41;5115860;28;20027;-64
2022/03/27 08:46:43;;;;;;;8.63;6.22;;;;;;;21.49;17.94;97275.66;5115844;28;20035;-64
2022/03/27 08:49:31;;;;;;;9.68;6.18;;;;;;;21.57;17.19;97283.97;5114480;28;20395;-64
2022/03/27 08:52:17;;;;;;;10.45;6.30;;;;;;;21.80;16.29;97283.31;5093975;28;20039;-64
2022/03/27 08:54:54;;;;;;;9.32;6.50;;;;;;;21.82;16.34;97282.22;5108182;28;20043;-64
2022/03/27 08:57:23;;;;;;;10.80;6.82;;;;;;;21.79;15.77;97279.78;5115580;28;20110;-64
2022/03/27 08:59:53;;;;;;;8.68;6.30;;;;;;;21.70;16.73;97277.75;5115462;28;20028;-64
2022/03/27 09:02:25;;;;;;;9.52;6.00;;;;;;;21.57;17.20;97268.00;5115501;28;20128;-64
2022/03/27 09:04:56;;;;;;;9.68;6.78;;;;;;;21.74;17.33;97281.91;5115446;28;20108;-64
2022/03/27 09:07:29;;;;;;;7.13;5.70;;;;;;;21.61;18.76;97273.09;5115454;28;20472;-64
2022/03/27 09:09:58;;;;;;;8.00;5.90;;;;;;;21.53;17.58;97271.84;5115428;28;20396;-64
2022/03/27 09:12:24;;;;;;;9.15;5.95;;;;;;;21.64;17.13;97283.53;5115279;28;20032;-64
2022/03/27 09:14:50;;;;;;;8.32;5.88;;;;;;;21.76;15.91;97277.34;5115149;28;20080;-64
2022/03/27 09:17:17;;;;;;;13.55;6.90;;;;;;;21.97;16.32;97274.06;5115113;28;20061;-64
2022/03/27 09:19:50;;;;;;;9.70;5.53;;;;;;;21.99;17.19;97276.63;5114390;28;20105;-64
2022/03/27 09:22:28;;;;;;;8.02;6.30;;;;;;;21.93;16.62;97276.13;5115017;28;20024;-64
2022/03/27 09:25:03;;;;;;;12.95;6.95;;;;;;;21.64;18.13;97273.72;5115095;28;20019;-64
2022/03/27 09:27:37;;;;;;;11.48;6.95;;;;;;;21.62;16.23;97259.69;5114992;27;20103;-64
2022/03/27 09:30:08;;;;;;;11.23;5.97;;;;;;;21.36;17.69;97243.75;5114974;28;20045;-64
2022/03/27 09:32:42;;;;;;;12.23;5.53;;;;;;;21.19;18.77;97243.16;5115112;28;20473;-64
2022/03/27 09:35:17;;;;;;;8.00;5.75;;;;;;;21.14;19.35;97252.41;5114868;28;20076;-64
2022/03/27 09:37:47;;;;;;;9.30;5.78;;;;;;;21.42;17.71;97248.66;5114771;28;20027;-64
2022/03/27 09:40:14;;;;;;;11.10;5.78;;;;;;;21.53;16.76;97247.88;5114314;28;20135;-64
2022/03/27 09:42:42;;;;;;;9.48;5.82;;;;;;;21.57;17.17;97252.03;5114725;28;20041;-64
2022/03/27 09:45:20;;;;;;;10.95;6.25;;;;;;;21.75;18.03;97235.72;5114636;28;20024;-64
2022/03/27 09:47:48;;;;;;;10.70;5.68;;;;;;;21.74;18.08;97234.00;5114653;28;20023;-64
2022/03/27 09:50:37;;;;;;;12.30;6.22;;;;;;;21.84;17.24;97235.03;5114481;28;20019;-64
2022/03/27 09:53:30;;;;;;;11.50;6.03;;;;;;;21.94;15.42;97239.66;5114594;28;20040;-64
2022/03/27 09:55:59;;;;;;;10.60;6.18;;;;;;;21.90;17.21;97231.06;5114484;28;20031;-64
2022/03/27 09:58:46;;;;;;;8.77;6.22;;;;;;;21.94;16.24;97229.03;5114269;27;20031;-64
2022/03/27 10:01:22;;;;;;;9.38;5.80;;;;;;;21.91;15.50;97227.44;5114469;28;20389;-64
2022/03/27 10:04:13;;;;;;;12.82;6.43;;;;;;;21.96;17.15;97230.63;5114492;28;20100;-64
2022/03/27 10:06:41;;;;;;;11.77;6.05;;;;;;;22.07;16.77;97237.81;5114501;28;20106;-64
2022/03/27 10:09:09;;;;;;;13.70;6.80;;;;;;;21.92;16.01;97223.84;5114259;28;20032;-64
2022/03/27 10:11:40;;;;;;;9.25;6.85;;;;;;;21.94;16.23;97227.22;5114252;28;20103;-64
2022/03/27 10:14:08;;;;;;;12.65;6.30;;;;;;;22.07;17.47;97227.16;5114234;28;20031;-64
2022/03/27 10:16:35;;;;;;;10.07;6.10;;;;;;;22.02;16.30;97228.47;5114097;28;20020;-64
2022/03/27 10:19:13;;;;;;;7.57;5.70;;;;;;;22.00;16.15;97233.06;5113844;28;20389;-64
2022/03/27 10:21:43;;;;;;;16.08;7.07;;;;;;;22.05;15.26;97222.91;5114048;28;20165;-64
2022/03/27 10:24:13;;;;;;;;;;;;;;;22.14;16.06;97218.72;5114373;28;20051;-64
2022/03/27 10:26:41;;;;;;;11.27;6.57;;;;;;;22.36;15.77;97236.59;5114056;28;19919;-64
2022/03/27 10:29:08;;;;;;;10.07;6.57;;;;;;;22.31;15.18;97223.59;5113836;28;20488;-64
2022/03/27 10:31:38;;;;;;;13.57;6.60;;;;;;;22.39;14.98;97216.88;5111606;28;20420;-64
2022/03/27 10:34:06;;;;;;;10.70;6.43;;;;;;;22.34;15.58;97219.88;5113762;28;20028;-64
2022/03/27 10:36:53;;;;;;;9.13;6.68;;;;;;;22.28;15.08;97217.69;5113857;28;20447;-64
2022/03/27 10:39:28;;;;;;;10.35;6.25;;;;;;;22.25;16.11;97209.91;5113802;28;20466;-64
2022/03/27 10:41:57;;;;;;;8.65;6.28;;;;;;;22.38;16.50;97216.03;5113398;28;20047;-64
2022/03/27 10:44:34;;;;;;;16.98;6.68;;;;;;;22.21;14.74;97210.16;5113672;28;20058;-64
2022/03/27 10:47:19;;;;;;;17.35;6.82;;;;;;;22.13;15.10;97211.69;5113696;28;20105;-64
2022/03/27 10:50:00;;;;;;;11.23;5.97;;;;;;;22.09;16.21;97198.59;5113632;28;20169;-64
2022/03/27 10:52:27;;;;;;;9.05;6.22;;;;;;;22.09;16.12;97209.25;5113479;28;20028;-64
2022/03/27 10:55:02;;;;;;;7.10;5.45;;;;;;;22.35;16.19;97210.91;5113582;28;20499;-64
2022/03/27 10:57:32;;;;;;;7.60;5.75;;;;;;;22.33;14.10;97210.16;5113575;28;20019;-64
2022/03/27 11:00:11;;;;;;;11.23;6.53;;;;;;;22.30;13.13;97199.75;5113537;28;20023;-64
2022/03/27 11:02:46;;;;;;;10.70;6.00;;;;;;;22.43;15.33;97202.34;5113608;28;20104;-64
2022/03/27 11:05:36;;;;;;;8.95;6.65;;;;;;;22.44;15.50;97198.72;5113452;28;20028;-64
2022/03/27 11:08:16;;;;;;;9.23;6.38;;;;;;;22.63;15.09;97206.16;5093883;28;20118;-64
2022/03/27 11:10:44;;;;;;;11.68;6.75;;;;;;;22.59;15.79;97191.38;5113459;28;20036;-64
2022/03/27 11:13:25;;;;;;;10.77;6.63;;;;;;;22.72;16.30;97194.81;5113438;28;20499;-64
2022/03/27 11:16:11;;;;;;;9.10;6.57;;;;;;;22.70;16.55;97190.56;5113317;28;20036;-64
2022/03/27 11:18:48;;;;;;;8.65;6.75;;;;;;;22.65;15.69;97196.25;5113138;28;20114;-64
2022/03/27 11:21:26;;;;;;;10.55;6.85;;;;;;;22.56;15.36;97192.44;5113329;28;20032;-64
2022/03/27 11:23:55;;;;;;;13.43;7.53;;;;;;;22.54;14.90;97193.50;5113174;28;20055;-64
2022/03/27 11:26:20;;;;;;;11.60;7.43;;;;;;;22.43;14.31;97192.50;5113270;28;20126;-64
2022/03/27 11:29:11;;;;;;;12.38;7.00;;;;;;;22.37;14.89;97185.00;5113342;28;20450;-64
2022/03/27 11:31:41;;;;;;;12.50;7.10;;;;;;;21.94;14.81;97179.28;5113254;28;20359;-64
2022/03/27 11:34:14;;;;;;;10.82;7.20;;;;;;;22.06;14.76;97171.31;5113287;28;20117;-64
2022/03/27 11:36:42;;;;;;;15.20;6.40;;;;;;;21.80;14.71;97183.00;5113347;28;20465;-64
2022/03/27 11:39:13;;;;;;;10.45;6.85;;;;;;;21.75;14.78;97173.59;5112939;28;20036;-64
2022/03/27 11:41:44;;;;;;;10.70;7.00;;;;;;;21.82;14.90;97164.22;5112898;28;20519;-64
2022/03/27 11:45:06;;;;;;;12.38;6.80;;;;;;;21.98;15.22;97153.28;5116544;28;20046;-64